Time;durP1;ratioP1;P1;durP2;ratioP2;P2;SDS_P1;SDS_P2;PMS_P1;PMS_P2;Temp;Humidity;BMP_temperature;BMP_pressure;BME280_temperature;BME280_humidity;BME280_pressure;Samples;Min_cycle;Max_cycle;Signal;HPM_P1;HPM_P2
2023/03/24 00:02:08;;;;;;;28.00;18.10;;;;;;;11.17;62.69;100872.94;110025;1237;63599;-67
2023/03/24 00:04:39;;;;;;;30.20;19.40;;;;;;;11.10;62.68;100868.92;110110;1239;58292;-67
2023/03/24 00:07:13;;;;;;;27.80;17.80;;;;;;;11.06;63.65;100866.77;110187;1237;60386;-67
2023/03/24 00:09:43;;;;;;;28.70;18.90;;;;;;;11.08;63.44;100864.15;110121;1241;63510;-67
2023/03/24 00:12:13;;;;;;;31.50;17.90;;;;;;;11.03;63.42;100860.71;110151;1239;61652;-67
2023/03/24 00:14:42;;;;;;;30.30;19.10;;;;;;;10.93;63.61;100858.11;110027;1238;70114;-68
2023/03/24 00:17:12;;;;;;;26.20;17.20;;;;;;;10.82;63.84;100864.51;110268;1237;73394;-67
2023/03/24 00:19:43;;;;;;;30.40;18.10;;;;;;;10.73;64.02;100859.71;110157;1239;58380;-67
2023/03/24 00:22:17;;;;;;;25.40;16.40;;;;;;;10.64;63.97;100863.83;110281;1239;58354;-67
2023/03/24 00:24:46;;;;;;;30.00;16.40;;;;;;;10.49;64.22;100860.01;110275;1237;74488;-67
2023/03/24 00:27:17;;;;;;;26.90;17.20;;;;;;;10.40;64.54;100858.54;110120;1240;62172;-67
2023/03/24 00:29:46;;;;;;;27.50;16.60;;;;;;;10.31;65.39;100861.61;110166;1239;60103;-67
2023/03/24 00:32:15;;;;;;;25.90;15.80;;;;;;;10.20;65.60;100860.91;110146;1241;65362;-67
2023/03/24 00:34:44;;;;;;;26.00;16.00;;;;;;;10.11;65.66;100862.28;110247;1239;58329;-67
2023/03/24 00:37:13;;;;;;;26.10;17.00;;;;;;;9.99;66.14;100859.91;110173;1238;60715;-67
2023/03/24 00:39:42;;;;;;;24.80;15.90;;;;;;;9.92;66.18;100857.95;110094;1237;74883;-67
2023/03/24 00:42:12;;;;;;;23.10;14.60;;;;;;;9.87;66.62;100854.85;110119;1238;72504;-66
2023/03/24 00:44:43;;;;;;;24.20;15.20;;;;;;;9.80;66.93;100854.08;110277;1238;60287;-64
2023/03/24 00:47:12;;;;;;;25.10;16.00;;;;;;;9.75;67.35;100854.25;110224;1239;62301;-66
2023/03/24 00:49:41;;;;;;;27.80;17.10;;;;;;;9.71;68.00;100851.05;110091;1240;58403;-66
2023/03/24 00:52:12;;;;;;;30.20;18.70;;;;;;;9.63;68.15;100851.20;110237;1238;58207;-66
2023/03/24 00:54:41;;;;;;;27.20;16.40;;;;;;;9.46;68.29;100854.41;110005;1236;72694;-66
2023/03/24 00:57:11;;;;;;;26.40;16.70;;;;;;;9.33;68.54;100856.98;110099;1237;72561;-67
2023/03/24 00:59:47;;;;;;;25.70;16.00;;;;;;;9.25;69.11;100854.53;110114;1239;60291;-67
2023/03/24 01:02:20;;;;;;;28.20;17.50;;;;;;;9.13;69.37;100859.30;110109;1241;62532;-68
2023/03/24 01:04:56;;;;;;;28.80;18.00;;;;;;;8.98;69.53;100861.13;110016;1239;61105;-67
2023/03/24 01:07:28;;;;;;;26.70;16.90;;;;;;;8.86;71.51;100864.90;110095;1237;60948;-66
2023/03/24 01:09:57;;;;;;;28.50;17.20;;;;;;;8.81;72.25;100870.71;110060;1241;74684;-67
2023/03/24 01:12:30;;;;;;;25.40;16.40;;;;;;;8.80;72.20;100870.83;109987;1241;61725;-66
2023/03/24 01:15:01;;;;;;;28.10;17.60;;;;;;;8.84;72.42;100868.64;110139;1239;59849;-67
2023/03/24 01:17:33;;;;;;;33.00;18.20;;;;;;;8.81;71.95;100869.50;109988;1241;63350;-66
2023/03/24 01:20:10;;;;;;;29.00;18.10;;;;;;;8.73;71.28;100869.66;109932;1241;58265;-68
2023/03/24 01:22:43;;;;;;;28.70;17.50;;;;;;;8.60;71.34;100869.94;110163;1237;60321;-68
2023/03/24 01:25:16;;;;;;;29.90;17.00;;;;;;;8.45;72.27;100871.40;109928;1242;64505;-67
2023/03/24 01:27:47;;;;;;;26.50;17.10;;;;;;;8.42;73.50;100872.45;110138;1239;61504;-67
2023/03/24 01:30:19;;;;;;;27.00;18.10;;;;;;;8.37;73.01;100869.78;110144;1239;68699;-67
2023/03/24 01:32:50;;;;;;;27.50;16.60;;;;;;;8.24;72.91;100876.77;109987;1241;63397;-67
2023/03/24 01:35:21;;;;;;;28.30;17.30;;;;;;;8.11;73.26;100875.65;109791;1244;62105;-67
2023/03/24 01:37:51;;;;;;;23.60;15.70;;;;;;;8.03;73.95;100877.35;109868;1242;57833;-67
2023/03/24 01:40:33;;;;;;;24.70;16.20;;;;;;;7.97;74.17;100877.86;110040;1238;63752;-66
2023/03/24 01:43:06;;;;;;;32.50;17.50;;;;;;;7.87;74.19;100880.75;110137;1240;61595;-66
2023/03/24 01:45:40;;;;;;;29.40;17.50;;;;;;;7.75;74.86;100881.73;109870;1237;69666;-67
2023/03/24 01:48:30;;;;;;;26.10;17.20;;;;;;;7.70;75.57;100884.50;109959;1241;74210;-67
2023/03/24 01:51:22;;;;;;;29.00;17.60;;;;;;;7.59;75.11;100884.56;110122;1240;58447;-68
2023/03/24 01:54:07;;;;;;;28.50;16.60;;;;;;;7.56;77.10;100882.52;110009;1238;60372;-67
2023/03/24 01:56:42;;;;;;;25.70;16.70;;;;;;;7.49;75.83;100880.30;110016;1237;74191;-67
2023/03/24 01:59:17;;;;;;;29.40;17.00;;;;;;;7.38;76.40;100883.15;110168;1237;71326;-68
2023/03/24 02:02:45;;;;;;;26.10;16.00;;;;;;;7.32;77.46;100885.59;110143;1239;70953;-67
2023/03/24 02:05:16;;;;;;;26.60;17.10;;;;;;;7.24;77.79;100885.73;110098;1238;74322;-68
2023/03/24 02:08:06;;;;;;;25.80;16.80;;;;;;;7.15;77.81;100886.20;110065;1239;58283;-68
2023/03/24 02:10:37;;;;;;;25.20;16.90;;;;;;;7.06;78.20;100887.38;110251;1238;58252;-67
2023/03/24 02:13:06;;;;;;;28.50;16.60;;;;;;;6.99;78.97;100892.42;109894;1238;63795;-68
2023/03/24 02:16:29;;;;;;;24.40;16.20;;;;;;;6.91;79.49;100896.83;109921;1238;61779;-68
2023/03/24 02:19:13;;;;;;;26.80;16.20;;;;;;;6.83;79.23;100893.31;109517;1237;70551;-68
2023/03/24 02:21:51;;;;;;;28.50;16.60;;;;;;;6.79;80.35;100887.48;109889;1241;62823;-68
2023/03/24 02:24:42;;;;;;;25.50;16.10;;;;;;;6.74;79.98;100883.25;109901;1241;57957;-68
2023/03/24 02:27:32;;;;;;;25.90;16.30;;;;;;;6.69;79.64;100878.33;109895;1238;58205;-68
2023/03/24 02:31:03;;;;;;;29.20;16.90;;;;;;;6.73;81.37;100880.01;110025;1238;63739;-68
2023/03/24 02:33:59;;;;;;;28.00;16.60;;;;;;;6.67;80.22;100874.27;109814;1237;71361;-68
2023/03/24 02:37:04;;;;;;;31.00;16.20;;;;;;;6.58;80.20;100878.05;109930;1238;59523;-67
2023/03/24 02:39:57;;;;;;;26.30;17.00;;;;;;;6.67;80.93;100877.55;109608;1238;73948;-67
2023/03/24 02:42:33;;;;;;;26.60;16.20;;;;;;;6.61;80.03;100871.10;110021;1238;62564;-67
2023/03/24 02:45:36;;;;;;;28.00;16.20;;;;;;;6.57;79.87;100875.98;109797;1238;61636;-67
2023/03/24 02:48:57;;;;;;;27.10;16.10;;;;;;;6.52;80.04;100876.59;109831;1237;74868;-68
2023/03/24 02:52:05;;;;;;;26.20;16.80;;;;;;;6.46;80.30;100880.05;109922;1237;72777;-68
2023/03/24 02:54:52;;;;;;;26.40;16.40;;;;;;;6.39;80.97;100881.29;109758;1237;69408;-68
2023/03/24 02:57:35;;;;;;;28.70;15.90;;;;;;;6.40;81.22;100884.15;109806;1238;74268;-68
2023/03/24 03:00:26;;;;;;;33.20;17.10;;;;;;;6.37;81.35;100883.60;110062;1238;58210;-68
2023/03/24 03:03:25;;;;;;;28.60;16.60;;;;;;;6.33;81.28;100883.33;110042;1237;61143;-68
2023/03/24 03:06:07;;;;;;;25.50;17.00;;;;;;;6.33;82.33;100885.75;109825;1238;74705;-68
2023/03/24 03:08:37;;;;;;;25.70;16.30;;;;;;;6.32;82.82;100883.00;109949;1238;72163;-68
2023/03/24 03:11:13;;;;;;;25.60;15.90;;;;;;;6.34;81.92;100879.95;110126;1237;59725;-67
2023/03/24 03:14:29;;;;;;;26.10;17.10;;;;;;;6.31;81.78;100880.48;109831;1238;63226;-67
2023/03/24 03:17:11;;;;;;;27.10;15.00;;;;;;;6.21;81.26;100887.08;110031;1238;63572;-68
2023/03/24 03:19:46;;;;;;;26.30;16.20;;;;;;;6.14;79.32;100892.42;109988;1237;60599;-67
2023/03/24 03:22:24;;;;;;;29.00;16.90;;;;;;;6.06;79.35;100901.31;109911;1241;74797;-66
2023/03/24 03:24:56;;;;;;;31.00;17.00;;;;;;;5.99;79.18;100904.24;110104;1237;61169;-67
2023/03/24 03:27:31;;;;;;;30.90;16.30;;;;;;;5.96;82.01;100909.41;110027;1237;70772;-68
2023/03/24 03:30:09;;;;;;;28.90;15.60;;;;;;;6.01;85.02;100916.10;109807;1238;74292;-67
2023/03/24 03:32:52;;;;;;;31.10;17.20;;;;;;;6.06;84.75;100913.39;109931;1240;59268;-68
2023/03/24 03:35:29;;;;;;;25.60;16.20;;;;;;;6.13;84.04;100910.65;110061;1237;57795;-69
2023/03/24 03:38:14;;;;;;;28.40;18.10;;;;;;;6.10;82.85;100912.47;110065;1237;64287;-68
2023/03/24 03:40:58;;;;;;;27.30;17.10;;;;;;;6.03;83.31;100915.44;110077;1236;61546;-67
2023/03/24 03:43:32;;;;;;;32.20;16.90;;;;;;;6.00;83.80;100919.21;110092;1237;68679;-68
2023/03/24 03:46:05;;;;;;;28.70;17.70;;;;;;;6.01;83.63;100918.31;110071;1238;74283;-67
2023/03/24 03:48:37;;;;;;;28.70;17.10;;;;;;;5.96;83.38;100915.13;110017;1239;57778;-67
2023/03/24 03:51:08;;;;;;;29.50;17.30;;;;;;;5.89;83.78;100914.59;110090;1236;58373;-68
2023/03/24 03:54:02;;;;;;;;;;;;;;;5.84;83.94;100922.09;109975;1237;73619;-68
2023/03/24 03:56:35;;;;;;;28.40;16.70;;;;;;;5.81;84.02;100927.43;110017;1237;62703;-68
2023/03/24 03:59:29;;;;;;;29.30;17.80;;;;;;;5.78;84.70;100929.80;110060;1237;68273;-70
2023/03/24 04:02:34;;;;;;;28.10;18.10;;;;;;;5.75;86.18;100922.17;109945;1239;73804;-68
2023/03/24 04:05:28;;;;;;;29.80;17.50;;;;;;;5.72;86.14;100920.56;110036;1238;58334;-68
2023/03/24 04:08:20;;;;;;;29.00;16.60;;;;;;;5.77;86.29;100920.71;109976;1238;58708;-68
2023/03/24 04:11:46;;;;;;;28.30;17.50;;;;;;;5.74;85.60;100918.08;109961;1237;62806;-70
2023/03/24 04:15:49;;;;;;;32.00;18.00;;;;;;;5.66;86.49;100918.31;110033;1237;72130;-69
2023/03/24 04:19:40;;;;;;;29.50;17.80;;;;;;;5.66;86.66;100920.03;110059;1237;59728;-69
2023/03/24 04:22:52;;;;;;;31.40;17.20;;;;;;;5.77;86.52;100916.73;110082;1238;73964;-70
2023/03/24 04:26:00;;;;;;;34.00;17.50;;;;;;;5.78;85.24;100921.84;110085;1239;58347;-69
2023/03/24 04:28:42;;;;;;;34.40;17.90;;;;;;;5.74;85.30;100927.24;110091;1239;57708;-68
2023/03/24 04:31:36;;;;;;;40.60;18.00;;;;;;;5.72;85.65;100931.48;110166;1237;62796;-69
2023/03/24 04:34:28;;;;;;;;;;;;;;;5.71;85.81;100936.35;110131;1239;70734;-71
2023/03/24 04:37:11;;;;;;;38.60;19.90;;;;;;;5.71;86.41;100936.55;110108;1237;59628;-69
2023/03/24 04:40:06;;;;;;;36.00;19.10;;;;;;;5.76;86.70;100942.50;110112;1238;73874;-69
2023/03/24 04:42:41;;;;;;;39.80;23.30;;;;;;;5.79;86.61;100946.34;110012;1241;62474;-70
2023/03/24 04:45:11;;;;;;;39.30;22.50;;;;;;;5.81;86.55;100948.31;110005;1236;60511;-69
2023/03/24 04:47:55;;;;;;;39.80;23.20;;;;;;;5.83;86.59;100952.19;110162;1238;63580;-69
2023/03/24 04:51:08;;;;;;;38.80;20.80;;;;;;;5.84;86.07;100957.52;110204;1238;70338;-73
2023/03/24 04:54:23;;;;;;;34.30;20.60;;;;;;;5.89;86.88;100959.87;109984;1237;59100;-67
2023/03/24 04:57:00;;;;;;;39.60;21.50;;;;;;;5.93;87.08;100959.31;110046;1238;62524;-71
2023/03/24 04:59:41;;;;;;;38.10;21.40;;;;;;;6.02;87.05;100962.20;109910;1241;57792;-69
2023/03/24 05:02:11;;;;;;;36.50;21.30;;;;;;;6.08;87.00;100960.69;110078;1237;61240;-69
2023/03/24 05:04:49;;;;;;;38.50;22.20;;;;;;;6.12;86.70;100962.03;110063;1237;64169;-70
2023/03/24 05:07:26;;;;;;;37.40;21.60;;;;;;;6.17;86.52;100964.07;110181;1237;72311;-69
2023/03/24 05:09:59;;;;;;;41.30;21.80;;;;;;;6.21;86.40;100966.09;110052;1237;70993;-73
2023/03/24 05:12:28;;;;;;;44.70;22.40;;;;;;;6.25;86.31;100962.06;109959;1237;62987;-80
2023/03/24 05:15:15;;;;;;;43.10;21.50;;;;;;;6.34;86.17;100964.39;110209;1238;58437;-74
2023/03/24 05:17:45;;;;;;;41.50;22.80;;;;;;;6.42;85.77;100967.30;110057;1237;60510;-72
2023/03/24 05:20:14;;;;;;;39.40;23.20;;;;;;;6.49;86.04;100967.95;110071;1237;64635;-71
2023/03/24 05:22:46;;;;;;;43.40;23.40;;;;;;;6.59;85.75;100972.13;110041;1238;70631;-73
2023/03/24 05:25:15;;;;;;;44.80;23.20;;;;;;;6.70;85.09;100976.08;110019;1238;60835;-72
2023/03/24 05:27:45;;;;;;;50.80;25.10;;;;;;;6.80;84.80;100979.51;109987;1238;63195;-75
2023/03/24 05:30:20;;;;;;;42.60;24.10;;;;;;;6.92;84.46;100979.73;110008;1241;58299;-76
2023/03/24 05:32:51;;;;;;;39.10;22.50;;;;;;;7.08;83.90;100978.90;109741;1238;58271;-76
2023/03/24 05:35:20;;;;;;;43.50;24.20;;;;;;;7.25;83.17;100981.61;109930;1238;74202;-77
2023/03/24 05:37:49;;;;;;;42.70;21.80;;;;;;;7.41;81.83;100976.39;109943;1238;71968;-76
2023/03/24 05:40:18;;;;;;;44.10;23.20;;;;;;;7.53;81.04;100974.89;109875;1238;59574;-73
2023/03/24 05:42:51;;;;;;;;;;;;;;;7.65;80.43;100972.80;110081;1238;73049;-74
2023/03/24 05:45:20;;;;;;;42.00;22.90;;;;;;;7.79;80.24;100973.77;110037;1239;58109;-73
2023/03/24 05:47:50;;;;;;;40.40;22.70;;;;;;;7.93;79.36;100973.64;109975;1238;58342;-75
2023/03/24 05:50:23;;;;;;;53.60;23.20;;;;;;;8.12;78.27;100972.01;109843;1238;63891;-75
2023/03/24 05:52:52;;;;;;;42.50;23.60;;;;;;;8.28;77.27;100962.61;109994;1241;61559;-77
2023/03/24 05:55:34;;;;;;;40.20;22.20;;;;;;;8.35;76.65;100955.64;110077;1237;62071;-78
2023/03/24 05:58:11;;;;;;;42.00;23.40;;;;;;;8.52;75.89;100960.55;109991;1238;72877;-75
2023/03/24 06:00:50;;;;;;;40.20;22.40;;;;;;;8.61;75.31;100965.02;110001;1239;58232;-78
2023/03/24 06:03:32;;;;;;;48.70;25.50;;;;;;;8.68;74.94;100970.48;109965;1238;58316;-79
2023/03/24 06:06:13;;;;;;;47.50;24.20;;;;;;;8.70;74.56;100972.64;109982;1238;64586;-75
2023/03/24 06:08:43;;;;;;;39.60;22.20;;;;;;;8.78;74.49;100979.26;109997;1238;72169;-73
2023/03/24 06:11:13;;;;;;;46.70;22.80;;;;;;;8.79;73.97;100977.81;109968;1238;69723;-70
2023/03/24 06:13:57;;;;;;;39.40;22.40;;;;;;;8.83;73.92;100972.88;110072;1239;63596;-69
2023/03/24 06:16:28;;;;;;;58.00;23.30;;;;;;;8.89;73.77;100974.13;110093;1239;58438;-69
2023/03/24 06:19:01;;;;;;;36.70;22.90;;;;;;;9.04;73.85;100972.65;109972;1238;57914;-67
2023/03/24 06:22:22;;;;;;;49.80;23.90;;;;;;;9.25;72.99;100971.70;109861;1238;64963;-67
2023/03/24 06:24:52;;;;;;;45.90;24.00;;;;;;;9.36;71.85;100972.06;109941;1239;60948;-68
2023/03/24 06:27:24;;;;;;;43.50;23.40;;;;;;;9.47;71.59;100971.89;109716;1242;59094;-67
2023/03/24 06:29:54;;;;;;;43.50;24.10;;;;;;;9.51;71.17;100968.84;109610;1238;74493;-69
2023/03/24 06:32:23;;;;;;;41.20;23.70;;;;;;;9.58;70.63;100968.17;109900;1239;63434;-70
2023/03/24 06:34:52;;;;;;;43.70;22.90;;;;;;;9.65;70.65;100967.77;109850;1242;57735;-68
2023/03/24 06:37:40;;;;;;;40.50;21.80;;;;;;;9.76;70.21;100966.68;110096;1238;73672;-69
2023/03/24 06:40:14;;;;;;;45.50;23.70;;;;;;;9.91;69.62;100969.52;110049;1237;72008;-71
2023/03/24 06:42:48;;;;;;;44.10;24.50;;;;;;;9.99;69.11;100970.27;110103;1238;60097;-74
2023/03/24 06:45:17;;;;;;;41.80;23.90;;;;;;;10.13;68.82;100971.06;110026;1238;63231;-68
2023/03/24 06:47:47;;;;;;;38.10;24.30;;;;;;;10.21;68.27;100968.95;110051;1239;61264;-72
2023/03/24 06:50:16;;;;;;;43.30;25.10;;;;;;;10.32;68.28;100967.70;109948;1238;61703;-69
2023/03/24 06:52:45;;;;;;;45.50;23.60;;;;;;;10.42;67.87;100965.99;109948;1238;74841;-71
2023/03/24 06:55:14;;;;;;;41.20;25.50;;;;;;;10.55;67.02;100967.57;109994;1238;71899;-71
2023/03/24 06:57:43;;;;;;;43.30;25.00;;;;;;;10.67;66.46;100966.03;110081;1238;61481;-70
2023/03/24 07:01:00;;;;;;;53.50;26.20;;;;;;;10.78;66.21;100968.44;109966;1238;73855;-70
2023/03/24 07:04:06;;;;;;;42.10;25.50;;;;;;;10.97;65.47;100966.06;109958;1241;60845;-70
2023/03/24 07:07:21;;;;;;;40.20;25.20;;;;;;;11.17;64.94;100966.60;109867;1238;57816;-68
2023/03/24 07:10:52;;;;;;;44.00;25.00;;;;;;;11.35;64.52;100964.58;110040;1241;62983;-69
2023/03/24 07:13:21;;;;;;;45.40;25.20;;;;;;;11.47;63.73;100967.04;109944;1241;61651;-69
2023/03/24 07:15:51;;;;;;;47.00;25.80;;;;;;;11.57;63.27;100965.27;110015;1237;70437;-71
2023/03/24 07:18:20;;;;;;;42.60;24.30;;;;;;;11.68;62.95;100962.02;109947;1237;64423;-68
2023/03/24 07:20:55;;;;;;;40.10;25.00;;;;;;;11.78;62.25;100968.64;109947;1241;57746;-69
2023/03/24 07:23:26;;;;;;;41.50;25.50;;;;;;;11.98;62.26;100975.60;110216;1238;60195;-69
2023/03/24 07:26:07;;;;;;;41.60;24.50;;;;;;;12.18;60.79;100979.09;109986;1238;74923;-69
2023/03/24 07:28:48;;;;;;;45.40;26.10;;;;;;;12.31;60.25;100977.80;110242;1239;61190;-71
2023/03/24 07:32:03;;;;;;;41.80;24.10;;;;;;;12.43;60.03;100972.92;109783;1239;378365;-70
2023/03/24 07:34:35;;;;;;;37.40;24.80;;;;;;;12.62;59.17;100972.29;110223;1238;73875;-70
2023/03/24 07:37:03;;;;;;;43.50;25.00;;;;;;;12.71;58.38;100967.94;110040;1241;60776;-70
2023/03/24 07:39:32;;;;;;;41.00;24.20;;;;;;;12.90;58.35;100966.59;110046;1241;58337;-71
2023/03/24 07:42:01;;;;;;;43.50;23.20;;;;;;;13.17;57.40;100968.55;110009;1242;63751;-68
2023/03/24 07:44:39;;;;;;;41.50;23.70;;;;;;;13.51;56.95;100966.91;109962;1237;71402;-70
2023/03/24 07:47:08;;;;;;;40.80;24.70;;;;;;;13.79;56.90;100966.14;109834;1238;70046;-70
2023/03/24 07:49:36;;;;;;;33.90;20.00;;;;;;;14.04;55.08;100963.12;110033;1237;74194;-68
2023/03/24 07:52:07;;;;;;;38.40;21.30;;;;;;;14.23;54.65;100960.97;109937;1241;57810;-71
2023/03/24 07:54:42;;;;;;;24.50;18.00;;;;;;;14.56;54.06;100964.55;109857;1240;61209;-69
2023/03/24 07:57:18;;;;;;;30.00;16.50;;;;;;;14.71;52.69;100960.62;109952;1238;74345;-70
2023/03/24 07:59:47;;;;;;;33.30;20.80;;;;;;;14.86;51.88;100958.28;109947;1238;72551;-73
2023/03/24 08:02:26;;;;;;;23.30;14.70;;;;;;;14.98;51.40;100957.94;110066;1238;70786;-70
2023/03/24 08:05:43;;;;;;;24.80;15.20;;;;;;;15.18;50.49;100956.36;109800;1242;63694;-70
2023/03/24 08:08:30;;;;;;;29.70;17.70;;;;;;;15.28;49.62;100954.77;110067;1239;60312;-71
2023/03/24 08:11:00;;;;;;;31.20;17.70;;;;;;;15.36;49.25;100946.33;110086;1239;58272;-70
2023/03/24 08:13:29;;;;;;;28.90;18.70;;;;;;;15.40;49.45;100946.11;109923;1242;73492;-71
2023/03/24 08:15:57;;;;;;;28.40;18.80;;;;;;;15.51;49.08;100941.69;109883;1236;73044;-71
2023/03/24 08:18:26;;;;;;;37.30;19.70;;;;;;;15.64;49.58;100942.77;109815;1241;59757;-72
2023/03/24 08:20:58;;;;;;;36.70;21.60;;;;;;;15.68;48.73;100943.36;110179;1239;62418;-72
2023/03/24 08:23:27;;;;;;;36.80;19.40;;;;;;;15.82;48.40;100941.36;110081;1239;61179;-73
2023/03/24 08:25:56;;;;;;;32.40;20.60;;;;;;;16.00;47.98;100938.09;110116;1238;61809;-73
2023/03/24 08:28:24;;;;;;;39.70;22.80;;;;;;;16.17;48.20;100939.17;110139;1241;72366;-72
2023/03/24 08:30:53;;;;;;;34.50;22.50;;;;;;;16.28;47.76;100933.45;110296;1239;61574;-74
2023/03/24 08:33:22;;;;;;;40.00;23.00;;;;;;;16.44;47.26;100927.41;110303;1236;59952;-73
2023/03/24 08:35:56;;;;;;;36.30;21.70;;;;;;;16.51;47.35;100926.25;110040;1239;62527;-70
2023/03/24 08:38:29;;;;;;;;;;;;;;;16.66;47.27;100923.95;110298;1239;58293;-73
2023/03/24 08:41:01;;;;;;;42.10;21.40;;;;;;;16.58;46.10;100924.46;110193;1238;58118;-74
2023/03/24 08:43:30;;;;;;;46.30;22.30;;;;;;;16.79;46.46;100922.15;110312;1239;62986;-70
2023/03/24 08:46:01;;;;;;;31.70;20.50;;;;;;;17.04;46.44;100922.23;110191;1237;61610;-74
2023/03/24 08:48:31;;;;;;;36.00;19.90;;;;;;;17.28;46.61;100918.52;110070;1237;59763;-73
2023/03/24 08:50:59;;;;;;;36.30;19.20;;;;;;;17.45;45.94;100921.55;110135;1236;73810;-73
2023/03/24 08:53:28;;;;;;;34.00;20.60;;;;;;;17.23;44.74;100922.29;110143;1242;58292;-72
2023/03/24 08:55:57;;;;;;;32.20;21.60;;;;;;;17.17;44.56;100920.40;110118;1237;57763;-72
2023/03/24 08:58:26;;;;;;;38.80;19.70;;;;;;;17.52;45.03;100922.11;110251;1237;62912;-73
2023/03/24 09:00:55;;;;;;;32.90;18.80;;;;;;;17.58;44.46;100917.63;110260;1239;70071;-71
2023/03/24 09:03:25;;;;;;;38.10;20.00;;;;;;;17.82;43.63;100916.06;110273;1238;59982;-76
2023/03/24 09:05:58;;;;;;;30.20;19.10;;;;;;;17.91;43.16;100911.41;110030;1237;73592;-71
2023/03/24 09:08:27;;;;;;;29.60;17.40;;;;;;;18.21;44.29;100908.25;110043;1239;57772;-72
2023/03/24 09:10:56;;;;;;;27.90;17.70;;;;;;;18.51;43.28;100909.78;110281;1237;57797;-71
2023/03/24 09:13:25;;;;;;;32.50;19.30;;;;;;;18.69;42.73;100909.84;110011;1241;63245;-72
2023/03/24 09:16:02;;;;;;;27.00;17.50;;;;;;;18.65;41.09;100908.12;110303;1238;62677;-72
2023/03/24 09:18:32;;;;;;;23.10;17.20;;;;;;;18.70;40.75;100902.34;110346;1236;59991;-73
2023/03/24 09:21:02;;;;;;;26.90;15.90;;;;;;;18.70;40.34;100898.02;110103;1236;65075;-71
2023/03/24 09:23:31;;;;;;;24.30;15.70;;;;;;;18.76;40.73;100893.59;110025;1241;61923;-71
2023/03/24 09:26:02;;;;;;;26.80;16.40;;;;;;;18.82;40.48;100891.40;110006;1238;58339;-70
2023/03/24 09:28:31;;;;;;;29.40;16.00;;;;;;;18.92;40.51;100886.21;109974;1238;74250;-68
2023/03/24 09:31:04;;;;;;;23.50;16.70;;;;;;;18.99;40.31;100882.68;110098;1241;71432;-71
2023/03/24 09:33:33;;;;;;;21.40;15.40;;;;;;;19.00;40.12;100879.91;109860;1237;60401;-69
2023/03/24 09:36:03;;;;;;;25.60;15.30;;;;;;;18.96;39.22;100880.06;110246;1238;62476;-70
2023/03/24 09:38:33;;;;;;;23.10;14.30;;;;;;;18.82;39.23;100876.17;109963;1241;59678;-71
2023/03/24 09:41:03;;;;;;;20.70;13.40;;;;;;;18.90;38.96;100873.89;110236;1238;59426;-71
2023/03/24 09:43:51;;;;;;;20.50;13.60;;;;;;;19.05;39.48;100869.52;109859;1237;74453;-74
2023/03/24 09:46:47;;;;;;;30.10;14.60;;;;;;;19.30;39.30;100870.73;110253;1238;61505;-72
2023/03/24 09:49:22;;;;;;;22.70;13.80;;;;;;;19.26;38.08;100863.55;110130;1239;69727;-70
2023/03/24 09:51:59;;;;;;;20.40;13.50;;;;;;;19.48;38.46;100863.36;110148;1238;63746;-81
2023/03/24 09:54:37;;;;;;;17.80;12.40;;;;;;;19.77;38.12;100861.88;110228;1239;58282;-75
2023/03/24 09:57:27;;;;;;;20.20;13.00;;;;;;;19.70;37.40;100857.75;110223;1238;58184;-72
2023/03/24 09:59:56;;;;;;;19.60;12.70;;;;;;;19.91;37.18;100854.59;109998;1238;63865;-72
2023/03/24 10:02:28;;;;;;;20.10;13.60;;;;;;;20.07;36.72;100845.81;110006;1237;71204;-75
2023/03/24 10:04:58;;;;;;;15.70;10.90;;;;;;;20.15;36.42;100847.95;110018;1238;60477;-71
2023/03/24 10:07:51;;;;;;;23.50;11.70;;;;;;;20.27;36.53;100841.86;110183;1238;73834;-70
2023/03/24 10:10:44;;;;;;;22.40;11.30;;;;;;;20.29;36.03;100836.04;110083;1239;57778;-73
2023/03/24 10:13:35;;;;;;;20.20;11.00;;;;;;;20.55;36.75;100829.21;110148;1237;61312;-69
2023/03/24 10:16:32;;;;;;;17.50;11.90;;;;;;;20.65;35.41;100826.08;109922;1236;73970;-70
2023/03/24 10:19:44;;;;;;;19.60;11.50;;;;;;;20.81;36.03;100827.54;109866;1237;71953;-73
2023/03/24 10:23:07;;;;;;;18.10;11.20;;;;;;;21.00;35.12;100818.52;109811;1238;70811;-71
2023/03/24 10:26:01;;;;;;;18.80;11.10;;;;;;;20.97;34.19;100820.45;110028;1239;73576;-72
2023/03/24 10:28:58;;;;;;;14.80;10.70;;;;;;;21.12;34.39;100817.36;109908;1239;58343;-70
2023/03/24 10:31:31;;;;;;;22.80;11.80;;;;;;;21.20;34.47;100811.95;109983;1238;58310;-71
2023/03/24 10:34:00;;;;;;;18.20;11.30;;;;;;;21.43;34.68;100809.44;109836;1238;63102;-72
2023/03/24 10:36:30;;;;;;;19.20;11.70;;;;;;;21.51;33.82;100808.22;110082;1239;61644;-72
2023/03/24 10:38:59;;;;;;;23.60;12.00;;;;;;;21.38;34.00;100801.94;109825;1238;69673;-71
2023/03/24 10:41:47;;;;;;;24.00;12.50;;;;;;;21.78;33.96;100797.39;109953;1238;74290;-72
2023/03/24 10:44:17;;;;;;;16.30;9.20;;;;;;;21.95;33.70;100797.29;109990;1239;59873;-72
2023/03/24 10:46:51;;;;;;;13.70;9.90;;;;;;;22.24;32.40;100799.40;109997;1238;61674;-72
2023/03/24 10:49:23;;;;;;;21.50;10.90;;;;;;;22.38;32.02;100795.54;110011;1238;73995;-73
2023/03/24 10:52:02;;;;;;;13.80;10.00;;;;;;;22.62;32.15;100795.23;110080;1239;61227;-70
2023/03/24 10:54:31;;;;;;;20.20;8.90;;;;;;;22.93;31.73;100791.17;110061;1238;69745;-73
2023/03/24 10:57:03;;;;;;;23.80;10.10;;;;;;;22.99;30.66;100788.08;110107;1239;74377;-73
2023/03/24 10:59:47;;;;;;;17.40;11.10;;;;;;;23.31;30.88;100783.74;109847;1237;60795;-71
2023/03/24 11:02:25;;;;;;;16.20;10.40;;;;;;;23.43;31.00;100784.84;109776;1238;58137;-70
2023/03/24 11:05:21;;;;;;;14.40;8.00;;;;;;;23.91;29.66;100777.83;109910;1238;65258;-70
2023/03/24 11:07:52;;;;;;;8.50;6.00;;;;;;;23.58;28.50;100771.41;109893;1238;72454;-72
2023/03/24 11:10:26;;;;;;;11.30;6.20;;;;;;;24.05;27.78;100766.43;109680;1238;68896;-71
2023/03/24 11:12:56;;;;;;;13.70;7.50;;;;;;;23.73;27.84;100763.29;109793;1238;74313;-70
2023/03/24 11:15:31;;;;;;;17.60;7.30;;;;;;;24.19;28.20;100758.80;110041;1239;58305;-70
2023/03/24 11:18:06;;;;;;;9.40;5.60;;;;;;;23.04;26.68;100758.79;109856;1237;61254;-71
2023/03/24 11:21:03;;;;;;;10.20;5.30;;;;;;;23.05;25.84;100751.60;109878;1237;74908;-70
2023/03/24 11:23:43;;;;;;;8.50;5.40;;;;;;;23.34;25.64;100744.46;109786;1238;71819;-70
2023/03/24 11:26:17;;;;;;;8.20;5.20;;;;;;;24.27;25.48;100743.39;109807;1238;60658;-72
2023/03/24 11:28:46;;;;;;;11.20;5.00;;;;;;;24.39;24.86;100741.45;109938;1238;73556;-70
2023/03/24 11:31:23;;;;;;;9.40;6.30;;;;;;;24.11;24.88;100737.70;109832;1240;58264;-73
2023/03/24 11:34:10;;;;;;;13.30;6.90;;;;;;;23.97;25.25;100732.61;109723;1241;57751;-71
2023/03/24 11:36:47;;;;;;;9.00;6.40;;;;;;;23.43;24.94;100728.40;109826;1239;74271;-70
2023/03/24 11:39:22;;;;;;;7.80;5.80;;;;;;;24.25;24.32;100728.95;109952;1238;62140;-71
2023/03/24 11:42:09;;;;;;;8.20;5.60;;;;;;;24.78;24.17;100726.33;109861;1238;60385;-69
2023/03/24 11:44:38;;;;;;;8.70;5.60;;;;;;;25.55;23.24;100720.58;109875;1239;62436;-69
2023/03/24 11:47:20;;;;;;;14.20;6.00;;;;;;;25.16;23.18;100713.01;110029;1239;58303;-73
2023/03/24 11:50:10;;;;;;;9.00;5.20;;;;;;;23.77;24.97;100709.42;110060;1238;60885;-72
2023/03/24 11:53:10;;;;;;;12.30;5.70;;;;;;;23.10;25.12;100708.42;110167;1238;64064;-72
2023/03/24 11:56:30;;;;;;;7.90;5.50;;;;;;;22.70;25.65;100701.09;110144;1239;60781;-72
2023/03/24 11:59:23;;;;;;;12.10;5.80;;;;;;;23.90;24.91;100694.92;110073;1239;69726;-71
2023/03/24 12:02:00;;;;;;;16.00;6.30;;;;;;;24.09;24.84;100697.73;110116;1238;73647;-72
2023/03/24 12:04:38;;;;;;;6.60;5.10;;;;;;;24.36;24.62;100702.14;110161;1239;57779;-69